createdAt,value
2018-07-31T00:02:37.263Z,99.90
2018-07-31T00:05:08.222Z,99.90
2018-07-31T00:07:39.606Z,99.90
2018-07-31T00:10:10.173Z,99.90
2018-07-31T00:12:40.982Z,99.90
2018-07-31T00:17:43.292Z,99.90
2018-07-31T00:20:13.942Z,99.90
2018-07-31T00:22:45.149Z,99.90
2018-07-31T00:25:15.697Z,99.90
2018-07-31T00:27:46.877Z,99.90
2018-07-31T00:30:17.873Z,99.90
2018-07-31T00:32:48.425Z,99.90
2018-07-31T00:35:19.421Z,99.90
2018-07-31T00:37:49.948Z,99.90
2018-07-31T00:40:20.914Z,99.90
2018-07-31T00:42:52.077Z,99.90
2018-07-31T00:45:23.121Z,99.90
2018-07-31T00:47:54.066Z,99.90
2018-07-31T00:50:25.452Z,99.90
2018-07-31T00:52:56.417Z,99.90
2018-07-31T00:55:27.123Z,99.90
2018-07-31T00:57:58.680Z,99.90
2018-07-31T01:00:29.371Z,99.90
2018-07-31T01:03:00.877Z,99.90
2018-07-31T01:05:31.451Z,99.90
2018-07-31T01:08:02.037Z,99.90
2018-07-31T01:10:33.537Z,99.90
2018-07-31T01:13:04.758Z,99.90
2018-07-31T01:15:35.613Z,99.90
2018-07-31T01:18:06.876Z,99.90
2018-07-31T01:20:38.017Z,99.90
2018-07-31T01:23:09.001Z,99.90
2018-07-31T01:25:39.541Z,99.90
2018-07-31T01:28:10.476Z,99.90
2018-07-31T01:30:41.327Z,99.90
2018-07-31T01:33:12.317Z,99.90
2018-07-31T01:35:44.187Z,99.90
2018-07-31T01:38:15.652Z,99.90
2018-07-31T01:40:46.289Z,99.90
2018-07-31T01:43:16.918Z,99.90
2018-07-31T01:48:18.245Z,99.90
2018-07-31T01:50:49.272Z,99.90
2018-07-31T01:53:20.453Z,99.90
2018-07-31T01:58:21.185Z,99.90
2018-07-31T02:03:22.671Z,99.90
2018-07-31T02:08:24.201Z,99.90
2018-07-31T02:10:55.437Z,99.90
2018-07-31T02:13:26.522Z,99.90
2018-07-31T02:15:57.212Z,99.90
2018-07-31T02:18:28.070Z,99.90
2018-07-31T02:20:59.041Z,99.90
2018-07-31T02:23:30.358Z,99.90
2018-07-31T02:26:01.193Z,99.90
2018-07-31T02:28:32.122Z,99.90
2018-07-31T02:31:02.680Z,99.90
2018-07-31T02:33:33.836Z,99.90
2018-07-31T02:36:05.031Z,99.90
2018-07-31T02:38:36.017Z,99.90
2018-07-31T02:41:07.002Z,99.90
2018-07-31T02:43:37.992Z,99.90
2018-07-31T02:46:09.005Z,99.90
2018-07-31T02:48:39.842Z,99.90
2018-07-31T02:51:11.274Z,99.90
2018-07-31T02:53:42.221Z,99.90
2018-07-31T02:56:12.991Z,99.90
2018-07-31T02:58:44.346Z,99.90
2018-07-31T03:01:15.325Z,99.90
2018-07-31T03:03:46.362Z,99.90
2018-07-31T03:06:17.302Z,99.90
2018-07-31T03:08:48.801Z,99.90
2018-07-31T03:11:19.757Z,99.90
2018-07-31T03:13:51.068Z,99.90
2018-07-31T03:16:22.044Z,99.90
2018-07-31T03:18:53.002Z,99.90
2018-07-31T03:21:23.720Z,99.90
2018-07-31T03:23:54.385Z,99.90
2018-07-31T03:26:25.219Z,99.90
2018-07-31T03:28:56.418Z,99.90
2018-07-31T03:31:27.292Z,99.90
2018-07-31T03:33:58.402Z,99.90
2018-07-31T03:36:29.493Z,99.90
2018-07-31T03:39:00.313Z,99.90
2018-07-31T03:44:01.897Z,99.90
2018-07-31T03:46:32.945Z,99.90
2018-07-31T03:49:04.140Z,99.90
2018-07-31T03:51:35.346Z,99.90
2018-07-31T03:54:06.375Z,99.90
2018-07-31T03:56:36.981Z,99.90
2018-07-31T03:59:08.261Z,99.90
2018-07-31T04:01:39.147Z,99.90
2018-07-31T04:04:10.281Z,99.90
2018-07-31T04:06:41.269Z,99.90
2018-07-31T04:09:13.573Z,99.90
2018-07-31T04:11:44.313Z,99.90
2018-07-31T04:14:15.643Z,99.90
2018-07-31T04:16:46.360Z,99.90
2018-07-31T04:19:17.225Z,99.90
2018-07-31T04:21:48.919Z,99.90
2018-07-31T04:24:19.558Z,99.90
2018-07-31T04:26:50.185Z,99.90
2018-07-31T04:29:21.301Z,99.90
2018-07-31T04:31:52.021Z,99.90
2018-07-31T04:34:22.906Z,99.90
2018-07-31T04:36:53.501Z,99.90
2018-07-31T04:39:24.938Z,99.90
2018-07-31T04:41:55.518Z,99.90
2018-07-31T04:44:26.381Z,99.90
2018-07-31T04:46:57.142Z,99.90
2018-07-31T04:49:27.893Z,99.90
2018-07-31T04:51:58.504Z,99.90
2018-07-31T04:54:29.805Z,99.90
2018-07-31T04:57:00.473Z,99.90
2018-07-31T05:02:01.991Z,99.90
2018-07-31T05:04:32.900Z,99.90
2018-07-31T05:07:03.901Z,99.90
2018-07-31T05:09:35.357Z,99.90
2018-07-31T05:12:06.540Z,99.90
2018-07-31T05:14:37.964Z,99.90
2018-07-31T05:17:08.551Z,99.90
2018-07-31T05:19:39.268Z,99.90
2018-07-31T05:22:09.914Z,99.90
2018-07-31T05:24:40.597Z,99.90
2018-07-31T05:27:11.557Z,99.90
2018-07-31T05:33:17.465Z,99.90
2018-07-31T05:35:48.721Z,99.90
2018-07-31T05:38:19.902Z,99.90
2018-07-31T05:40:50.449Z,99.90
2018-07-31T05:43:21.677Z,99.90
2018-07-31T05:45:52.657Z,99.90
2018-07-31T05:48:24.198Z,99.90
2018-07-31T05:50:54.838Z,99.90
2018-07-31T05:53:25.625Z,99.90
2018-07-31T05:55:56.610Z,99.90
2018-07-31T06:05:59.185Z,99.90
2018-07-31T06:08:29.777Z,99.90
2018-07-31T06:11:00.946Z,99.90
2018-07-31T06:13:31.517Z,99.90
2018-07-31T06:16:02.441Z,99.90
2018-07-31T06:18:33.372Z,99.90
2018-07-31T06:21:04.017Z,99.90
2018-07-31T06:23:36.312Z,99.90
2018-07-31T06:26:06.941Z,99.90
2018-07-31T06:28:37.611Z,99.90
2018-07-31T06:31:08.581Z,99.90
2018-07-31T06:33:39.900Z,99.90
2018-07-31T06:36:12.027Z,99.90
2018-07-31T06:38:42.642Z,99.90
2018-07-31T06:41:13.229Z,99.90
2018-07-31T06:43:44.466Z,99.90
2018-07-31T06:46:15.032Z,99.90
2018-07-31T06:48:46.271Z,99.90
2018-07-31T06:51:17.318Z,99.90
2018-07-31T06:53:48.474Z,99.90
2018-07-31T06:56:19.042Z,99.90
2018-07-31T06:59:02.250Z,99.90
2018-07-31T07:04:21.683Z,99.90
2018-07-31T07:06:52.832Z,99.90
2018-07-31T07:09:23.809Z,99.90
2018-07-31T07:11:54.416Z,99.90
2018-07-31T07:14:25.946Z,99.90
2018-07-31T07:16:56.518Z,99.90
2018-07-31T07:19:27.388Z,99.90
2018-07-31T07:21:58.389Z,99.90
2018-07-31T07:24:28.948Z,99.90
2018-07-31T07:26:59.498Z,99.90
2018-07-31T07:29:30.107Z,99.90
2018-07-31T07:32:00.675Z,99.90
2018-07-31T07:34:31.818Z,99.90
2018-07-31T07:37:02.369Z,99.90
2018-07-31T07:39:32.910Z,99.90
2018-07-31T07:42:03.450Z,99.90
2018-07-31T07:47:04.494Z,99.90
2018-07-31T07:49:35.926Z,99.90
2018-07-31T07:52:06.633Z,99.90
2018-07-31T07:54:37.397Z,99.90
2018-07-31T07:57:08.301Z,99.90
2018-07-31T08:02:09.992Z,99.90
2018-07-31T08:04:40.965Z,99.90
2018-07-31T08:07:12.254Z,99.90
2018-07-31T08:12:13.624Z,99.90
2018-07-31T08:14:44.181Z,99.90
2018-07-31T08:17:14.817Z,99.90
2018-07-31T08:19:45.666Z,99.90
2018-07-31T08:22:16.209Z,99.90
2018-07-31T08:29:56.604Z,99.90
2018-07-31T08:32:27.237Z,99.90
2018-07-31T08:34:58.580Z,99.90
2018-07-31T08:37:29.112Z,99.90
2018-07-31T08:39:59.967Z,99.90
2018-07-31T08:42:30.513Z,99.90
2018-07-31T08:45:01.113Z,99.90
2018-07-31T08:47:31.748Z,99.90
2018-07-31T08:50:03.200Z,99.90
2018-07-31T08:52:33.842Z,99.90
2018-07-31T08:55:04.928Z,99.90
2018-07-31T08:57:35.509Z,99.90
2018-07-31T09:00:06.889Z,99.90
2018-07-31T09:02:38.375Z,99.90
2018-07-31T09:05:09.969Z,99.90
2018-07-31T09:07:41.093Z,99.90
2018-07-31T09:10:13.345Z,99.90
2018-07-31T09:12:44.067Z,99.90
2018-07-31T09:17:55.027Z,99.90
2018-07-31T09:20:27.425Z,99.90
2018-07-31T09:22:58.039Z,99.70
2018-07-31T09:25:33.411Z,99.60
2018-07-31T09:28:05.045Z,99.10
2018-07-31T09:30:35.754Z,99.00
2018-07-31T09:33:07.874Z,98.70
2018-07-31T09:35:38.818Z,98.40
2018-07-31T09:38:09.385Z,98.60
2018-07-31T09:40:40.885Z,98.20
2018-07-31T09:43:11.562Z,97.20
2018-07-31T09:45:45.978Z,96.90
2018-07-31T09:48:17.098Z,97.10
2018-07-31T09:50:47.829Z,96.60
2018-07-31T09:53:18.366Z,96.50
2018-07-31T09:55:49.755Z,96.00
2018-07-31T09:58:20.411Z,95.80
2018-07-31T10:00:57.174Z,96.10
2018-07-31T10:03:28.314Z,96.00
2018-07-31T10:05:59.159Z,95.90
2018-07-31T10:08:29.685Z,95.20
2018-07-31T10:11:00.686Z,96.10
2018-07-31T10:13:31.270Z,95.50
2018-07-31T10:16:02.265Z,95.40
2018-07-31T10:18:33.339Z,95.40
2018-07-31T10:21:03.965Z,94.60
2018-07-31T10:23:34.553Z,95.30
2018-07-31T10:26:05.729Z,95.40
2018-07-31T10:31:06.519Z,95.10
2018-07-31T10:33:37.109Z,94.80
2018-07-31T10:36:08.330Z,94.90
2018-07-31T10:38:38.885Z,94.20
2018-07-31T10:41:09.820Z,94.60
2018-07-31T10:43:40.431Z,95.50
2018-07-31T10:46:11.182Z,95.40
2018-07-31T10:48:41.753Z,95.60
2018-07-31T10:51:13.075Z,95.40
2018-07-31T10:53:43.669Z,95.40
2018-07-31T10:56:14.205Z,95.00
2018-07-31T10:58:44.787Z,94.90
2018-07-31T11:01:15.483Z,95.10
2018-07-31T11:03:46.581Z,94.20
2018-07-31T11:06:17.202Z,93.60
2018-07-31T11:08:47.890Z,93.60
2018-07-31T11:11:18.483Z,93.10
2018-07-31T11:13:49.145Z,93.90
2018-07-31T11:16:20.245Z,94.30
2018-07-31T11:18:50.861Z,93.70
2018-07-31T11:21:21.839Z,93.80
2018-07-31T11:23:52.679Z,93.10
2018-07-31T11:26:24.097Z,92.20
2018-07-31T11:28:54.717Z,92.40
2018-07-31T11:31:25.392Z,92.50
2018-07-31T11:33:56.348Z,92.30
2018-07-31T11:36:26.917Z,92.30
2018-07-31T11:38:57.470Z,92.70
2018-07-31T11:41:29.066Z,93.30
2018-07-31T11:43:59.660Z,93.50
2018-07-31T11:46:30.587Z,93.60
2018-07-31T11:49:01.113Z,92.80
2018-07-31T11:51:32.087Z,92.90
2018-07-31T11:54:02.834Z,92.50
2018-07-31T11:56:33.909Z,92.30
2018-07-31T11:59:06.113Z,92.00
2018-07-31T12:01:36.944Z,92.70
2018-07-31T12:04:07.560Z,92.10
2018-07-31T12:06:38.541Z,93.00
2018-07-31T12:09:12.064Z,93.00
2018-07-31T12:11:44.027Z,93.20
2018-07-31T12:14:14.953Z,93.40
2018-07-31T12:16:45.513Z,93.30
2018-07-31T12:19:16.374Z,93.90
2018-07-31T12:21:46.896Z,94.20
2018-07-31T12:24:17.452Z,93.90
2018-07-31T12:26:48.864Z,93.70
2018-07-31T12:29:19.449Z,93.20
2018-07-31T12:31:50.001Z,93.20
2018-07-31T12:34:20.526Z,92.70
2018-07-31T12:36:51.259Z,92.10
2018-07-31T12:39:22.054Z,91.90
2018-07-31T12:41:52.717Z,91.80
2018-07-31T12:44:23.645Z,91.80
2018-07-31T12:46:54.626Z,90.90
2018-07-31T12:49:25.164Z,90.90
2018-07-31T12:54:25.801Z,90.20
2018-07-31T12:56:57.097Z,89.60
2018-07-31T12:59:28.092Z,88.50
2018-07-31T13:01:59.133Z,86.80
2018-07-31T13:04:31.221Z,86.10
2018-07-31T13:07:01.899Z,86.40
2018-07-31T13:09:32.833Z,86.90
2018-07-31T13:12:03.948Z,87.40
2018-07-31T13:14:34.485Z,89.00
2018-07-31T13:17:05.191Z,89.20
2018-07-31T13:19:35.933Z,89.40
2018-07-31T13:22:06.713Z,88.10
2018-07-31T13:24:37.786Z,88.30
2018-07-31T13:27:09.654Z,87.10
2018-07-31T13:29:41.073Z,88.60
2018-07-31T13:32:12.248Z,87.80
2018-07-31T13:34:42.925Z,87.00
2018-07-31T13:37:13.526Z,87.50
2018-07-31T13:39:45.794Z,87.20
2018-07-31T13:42:16.571Z,84.70
2018-07-31T13:44:47.173Z,81.80
2018-07-31T13:47:17.885Z,81.00
2018-07-31T13:49:48.773Z,78.90
2018-07-31T13:52:19.321Z,78.70
2018-07-31T13:54:50.107Z,79.30
2018-07-31T13:57:21.413Z,79.60
2018-07-31T13:59:52.002Z,80.00
2018-07-31T14:02:22.833Z,79.40
2018-07-31T14:04:53.502Z,81.30
2018-07-31T14:07:24.143Z,81.00
2018-07-31T14:09:55.046Z,78.50
2018-07-31T14:12:26.035Z,79.40
2018-07-31T14:14:56.578Z,80.50
2018-07-31T14:17:28.127Z,79.80
2018-07-31T14:19:59.012Z,79.20
2018-07-31T14:22:29.525Z,78.30
2018-07-31T14:25:00.062Z,77.50
2018-07-31T14:27:31.268Z,76.60
2018-07-31T14:30:01.810Z,76.30
2018-07-31T14:32:32.565Z,76.60
2018-07-31T14:35:03.555Z,76.50
2018-07-31T14:37:34.593Z,75.70
2018-07-31T14:40:05.437Z,75.40
2018-07-31T14:42:36.818Z,74.70
2018-07-31T14:45:07.518Z,71.80
2018-07-31T14:47:38.084Z,71.90
2018-07-31T14:50:08.769Z,72.10
2018-07-31T14:52:40.082Z,70.30
2018-07-31T14:55:10.655Z,69.00
2018-07-31T14:57:41.209Z,68.50
2018-07-31T15:00:12.402Z,67.80
2018-07-31T15:02:43.581Z,68.80
2018-07-31T15:05:14.370Z,72.90
2018-07-31T15:07:45.645Z,75.50
2018-07-31T15:10:16.169Z,74.50
2018-07-31T15:12:46.706Z,72.70
2018-07-31T15:15:17.283Z,72.90
2018-07-31T15:17:47.910Z,72.10
2018-07-31T15:20:18.609Z,70.80
2018-07-31T15:22:49.806Z,68.60
2018-07-31T15:25:20.438Z,67.20
2018-07-31T15:27:51.181Z,65.40
2018-07-31T15:30:22.390Z,64.80
2018-07-31T15:32:53.138Z,64.50
2018-07-31T15:35:23.756Z,67.50
2018-07-31T15:37:54.477Z,68.10
2018-07-31T15:40:25.634Z,70.90
2018-07-31T15:42:56.551Z,71.20
2018-07-31T15:45:27.105Z,73.70
2018-07-31T15:47:58.074Z,75.40
2018-07-31T15:50:28.934Z,74.70
2018-07-31T15:54:01.986Z,74.20
2018-07-31T15:56:32.793Z,73.30
2018-07-31T15:59:03.412Z,73.30
2018-07-31T16:01:34.426Z,73.30
2018-07-31T16:04:05.153Z,73.70
2018-07-31T16:06:35.727Z,73.60
2018-07-31T16:09:08.829Z,75.20
2018-07-31T16:11:39.755Z,75.20
2018-07-31T16:14:10.368Z,75.30
2018-07-31T16:16:40.946Z,76.00
2018-07-31T16:19:12.202Z,76.60
2018-07-31T16:21:42.726Z,75.90
2018-07-31T16:24:13.439Z,75.60
2018-07-31T16:26:43.968Z,75.30
2018-07-31T16:29:14.843Z,76.80
2018-07-31T16:31:45.752Z,78.70
2018-07-31T16:34:16.436Z,87.30
2018-07-31T16:36:47.083Z,90.50
2018-07-31T16:39:18.038Z,92.00
2018-07-31T16:41:48.648Z,93.90
2018-07-31T16:44:19.376Z,95.50
2018-07-31T16:46:49.946Z,96.20
2018-07-31T16:49:20.848Z,95.90
2018-07-31T16:51:51.966Z,95.10
2018-07-31T16:54:22.606Z,94.40
2018-07-31T16:56:53.285Z,94.20
2018-07-31T16:59:24.213Z,95.20
2018-07-31T17:01:55.222Z,96.00
2018-07-31T17:04:26.157Z,96.00
2018-07-31T17:06:56.826Z,95.70
2018-07-31T17:09:27.365Z,95.80
2018-07-31T17:11:58.285Z,96.60
2018-07-31T17:14:29.021Z,97.00
2018-07-31T17:17:00.069Z,96.50
2018-07-31T17:19:30.820Z,95.30
2018-07-31T17:22:01.414Z,95.00
2018-07-31T17:24:32.133Z,94.80
2018-07-31T17:27:03.074Z,94.40
2018-07-31T17:29:33.782Z,95.00
2018-07-31T17:32:04.406Z,94.70
2018-07-31T17:34:35.617Z,95.10
2018-07-31T17:37:06.387Z,94.70
2018-07-31T17:39:37.099Z,95.20
2018-07-31T17:42:07.957Z,96.00
2018-07-31T17:44:38.595Z,97.30
2018-07-31T17:47:09.150Z,97.70
2018-07-31T17:49:40.136Z,97.60
2018-07-31T17:52:10.710Z,98.00
2018-07-31T17:54:41.507Z,98.10
2018-07-31T17:57:12.349Z,98.20
2018-07-31T17:59:42.945Z,98.10
2018-07-31T18:02:13.495Z,98.40
2018-07-31T18:04:44.457Z,98.70
2018-07-31T18:07:15.021Z,98.40
2018-07-31T18:09:45.835Z,98.80
2018-07-31T18:12:16.409Z,99.10
2018-07-31T18:14:47.011Z,99.20
2018-07-31T18:17:17.850Z,99.40
2018-07-31T18:19:48.732Z,99.90
2018-07-31T18:22:19.250Z,99.90
2018-07-31T18:24:49.917Z,99.90
2018-07-31T18:27:20.747Z,99.90
2018-07-31T18:29:51.336Z,99.90
2018-07-31T18:32:21.921Z,99.90
2018-07-31T18:34:52.868Z,99.90
2018-07-31T18:37:23.485Z,99.90
2018-07-31T18:39:54.198Z,99.90
2018-07-31T18:42:24.751Z,99.90
2018-07-31T18:44:56.529Z,99.90
2018-07-31T18:47:27.192Z,99.90
2018-07-31T18:49:58.816Z,99.90
2018-07-31T18:52:29.325Z,99.90
2018-07-31T18:54:59.888Z,99.90
2018-07-31T18:57:30.425Z,99.90
2018-07-31T19:00:02.445Z,99.90
2018-07-31T19:02:33.453Z,99.90
2018-07-31T19:05:04.439Z,99.90
2018-07-31T19:07:35.002Z,99.90
2018-07-31T19:10:06.182Z,99.90
2018-07-31T19:12:36.705Z,99.90
2018-07-31T19:15:07.953Z,99.90
2018-07-31T19:17:38.615Z,99.90
2018-07-31T19:20:09.190Z,99.90
2018-07-31T19:22:40.014Z,99.90
2018-07-31T19:25:10.545Z,99.90
2018-07-31T19:27:41.462Z,99.90
2018-07-31T19:30:12.229Z,99.90
2018-07-31T19:32:42.770Z,99.90
2018-07-31T19:35:14.421Z,99.90
2018-07-31T19:37:44.958Z,99.90
2018-07-31T19:40:16.327Z,99.90
2018-07-31T19:42:46.942Z,99.90
2018-07-31T19:45:17.510Z,99.90
2018-07-31T19:47:48.592Z,99.90
2018-07-31T19:50:19.185Z,99.90
2018-07-31T19:52:49.732Z,99.90
2018-07-31T19:55:20.773Z,99.90
2018-07-31T19:57:51.406Z,99.90
2018-07-31T20:00:22.310Z,99.90
2018-07-31T20:02:53.315Z,99.90
2018-07-31T20:05:24.014Z,99.90
2018-07-31T20:07:54.661Z,99.90
2018-07-31T20:10:25.609Z,99.90
2018-07-31T20:12:56.258Z,99.90
2018-07-31T20:15:27.620Z,99.90
2018-07-31T20:17:58.541Z,99.90
2018-07-31T20:20:29.213Z,99.90
2018-07-31T20:22:59.753Z,99.90
2018-07-31T20:25:30.360Z,99.90
2018-07-31T20:28:00.969Z,99.90
2018-07-31T20:30:31.697Z,99.90
2018-07-31T20:33:02.576Z,99.90
2018-07-31T20:35:33.190Z,99.90
2018-07-31T20:38:03.766Z,99.90
2018-07-31T20:40:34.490Z,99.90
2018-07-31T20:43:05.325Z,99.90
2018-07-31T20:45:36.194Z,99.90
2018-07-31T20:48:07.120Z,99.90
2018-07-31T20:50:38.061Z,99.90
2018-07-31T20:53:08.617Z,99.90
2018-07-31T20:55:39.353Z,99.90
2018-07-31T20:58:09.878Z,99.90
2018-07-31T21:00:40.741Z,99.90
2018-07-31T21:03:11.272Z,99.90
2018-07-31T21:05:41.885Z,99.90
2018-07-31T21:08:12.716Z,99.90
2018-07-31T21:10:43.600Z,99.90
2018-07-31T21:13:14.213Z,99.90
2018-07-31T21:15:45.784Z,99.90
2018-07-31T21:18:16.317Z,99.90
2018-07-31T21:20:47.290Z,99.90
2018-07-31T21:23:17.834Z,99.90
2018-07-31T21:25:48.365Z,99.90
2018-07-31T21:28:18.940Z,99.90
2018-07-31T21:30:49.657Z,99.90
2018-07-31T21:33:20.574Z,99.90
2018-07-31T21:35:51.117Z,99.90
2018-07-31T21:38:21.681Z,99.90
2018-07-31T21:40:52.256Z,99.90
2018-07-31T21:43:23.081Z,99.90
2018-07-31T21:45:53.798Z,99.90
2018-07-31T21:48:24.470Z,99.90
2018-07-31T21:50:55.461Z,99.90
2018-07-31T21:53:26.048Z,99.90
2018-07-31T21:55:56.779Z,99.90
2018-07-31T21:58:27.364Z,99.90
2018-07-31T22:01:03.562Z,99.90
2018-07-31T22:03:34.190Z,99.90
2018-07-31T22:06:05.535Z,99.90
2018-07-31T22:08:37.055Z,99.90
2018-07-31T22:11:07.598Z,99.90
2018-07-31T22:13:38.137Z,99.90
2018-07-31T22:16:08.711Z,99.90
2018-07-31T22:18:39.548Z,99.90
2018-07-31T22:21:10.266Z,99.90
2018-07-31T22:23:40.831Z,99.90
2018-07-31T22:26:11.533Z,99.90
2018-07-31T22:28:42.139Z,99.90
2018-07-31T22:31:13.064Z,99.90
2018-07-31T22:36:14.229Z,99.90
2018-07-31T22:38:44.812Z,99.90
2018-07-31T22:41:15.771Z,99.90
2018-07-31T22:43:46.804Z,99.90
2018-07-31T22:46:17.770Z,99.90
2018-07-31T22:48:48.686Z,99.90
2018-07-31T22:51:19.257Z,99.90
2018-07-31T22:53:49.806Z,99.90
2018-07-31T22:56:20.369Z,99.90
2018-07-31T22:58:51.597Z,99.90
2018-07-31T23:01:22.308Z,99.90
2018-07-31T23:03:53.141Z,99.90
2018-07-31T23:06:23.841Z,99.90
2018-07-31T23:08:54.414Z,99.90
2018-07-31T23:11:25.361Z,99.90
2018-07-31T23:13:55.944Z,99.90
2018-07-31T23:16:26.867Z,99.90
2018-07-31T23:18:57.653Z,99.90
2018-07-31T23:21:28.712Z,99.90
2018-07-31T23:23:59.545Z,99.90
2018-07-31T23:26:30.634Z,99.90
2018-07-31T23:29:01.185Z,99.90
2018-07-31T23:31:31.873Z,99.90
2018-07-31T23:34:02.673Z,99.90
2018-07-31T23:36:33.386Z,99.90
2018-07-31T23:39:04.261Z,99.90
2018-07-31T23:41:34.833Z,99.90
2018-07-31T23:44:05.721Z,99.90
2018-07-31T23:46:36.638Z,99.90
2018-07-31T23:49:07.485Z,99.90
2018-07-31T23:51:38.366Z,99.90
2018-07-31T23:54:08.912Z,99.90
2018-07-31T23:56:39.849Z,99.90
2018-07-31T23:59:10.704Z,99.90
